Create Custom Reports and Graphics: Custom Report

Latest Observations

Map

15 Minute Data

Latest Observation

39 Stations

15 Minute Data | America/Los_Angeles
as of 5/17/22 4:15 AM PDT
Station Date Time Temp (°F) RH (%) Dew Pt (°F) Wind Dir (°) Wind Spd (mph) Wind Gust (mph) Solar Rad (W/m2) Latest Rain (In) Daily Rain (In) Daily Max Temp (°F) Daily Min Temp (°F) Daily Max Wind (mph) Daily ETo (in) Daily Leaf Wet Hrs (hrs)
Colony 1 5/17/22 0415 49.0   2.6 91   5 46.4   1.0 ENE | 71 0.9   1.5 2.3   1.4 0   0 0.00 0.00 51.3   3.3 48.8   2.4 2.3   1.4 0.000   0.000 -
Colony 2 5/17/22 0415 49.5   4.8 85   7 45.3   2.6 SSE | 150 0.6   2.7 1.5   3.9 0   0 0.00 0.00 53.0   3.0 49.3   3.5 3.4   2.0 0.000   0.000 -
5 Wells 5/17/22 0415 48.2   3.3 83   5 43.2   1.6 N | 0 0.0   3.2 0.0   5.2 0   0 0.00 0.00 51.6   5.0 47.8   3.4 3.7   3.1 0.000   0.000 -
Simmerhorn 5/17/22 0415 49.1   2.3 91   2 46.6   1.7 - - - - - - 52.5   3.6 48.3   2.5 - - -
Galt-East 5/17/22 0415 50.2   2.7 86   8 46.1   0.1 W | 261 0.3   0.8 1.2   2.2 0   0 0.00 0.00 54.1   3.2 49.9   2.2 2.0   3.9 0.000   0.000 -
Borden Hills 5/17/22 0415 50.2   3.4 86   12 46.3   0.5 ENE | 57 1.9   0.0 2.5   0.6 0   0 0.00 0.00 54.5   3.2 49.6   2.5 5.8   0.4 0.000   0.000 -
Sierra Loma-L27 5/17/22 0415 50.8   2.9 85   8 46.4   0.0 NNW | 340 0.4   1.2 1.7   1.7 - 0.00 0.00 52.8   3.5 49.7   2.7 3.5   1.1 - -
Lockeford 5/17/22 0415 52.4   0.8 82   2 47.1   0.2 W | 270 3.2   3.0 4.8   2.3 1   0 0.00 0.00 53.2   2.9 49.4   1.1 4.8   0.3 0.000   0.000 3.2   3.2
Lone Oak-L28 5/17/22 0415 46.0   1.1 94   0 44.4   1.1 SW | 219 0.0   1.4 0.0   2.4 - 0.00 0.00 51.9   1.1 45.8   0.6 4.2   0.1 - -
Kost Rd 5/17/22 0415 47.4   8.4 91   8 45.0   5.7 WNW | 299 0.1   3.7 1.3   6.1 0   0 0.00 0.00 53.9   3.4 47.1   8.5 3.3   5.3 0.000   0.000 -
Thornton 5/17/22 0415 47.5   9.0 83   8 42.7   6.0 N | 0 0.0   2.6 0.0   6.1 0   0 0.00 0.00 54.3   3.6 47.2   8.9 2.7   9.7 0.000   0.001 0.0   0.0
Lodi (LangeTwins) 5/17/22 0415 52.2   4.3 85   5 47.8   2.6 N | 0 0.0   5.0 0.0   8.8 0   0 0.00 0.00 55.4   3.1 51.7   4.6 6.1   4.7 0.000   0.001 0.0   0.0
Gilbeau Ranch 5/17/22 0415 48.6   3.4 84   6 44.1   1.4 N | 0 0.0   1.7 0.0   4.7 0   0 0.00 0.00 52.5   4.8 48.4   3.3 1.8   6.0 0.000   0.000 -
Galt West 5/17/22 0415 47.5   3.6 91   4 45.1   2.3 E | 94 0.3   1.0 1.6   1.7 0   0 0.00 0.00 51.5   3.9 47.2   3.4 2.9   2.0 0.000   0.000 -
Valley Oak 5/17/22 0415 46.2   9.5 100   23 46.2   2.4 N | 2 0.1   3.4 1.0   5.5 0   0 0.00 0.00 50.2   6.3 45.8   6.0 2.4   5.3 0.000   0.000 -
Guard Rd (Lodi WSW) 5/17/22 0415 45.8   11.7 93   19 44.0   5.5 NNW | 328 0.4   6.0 1.5   10.1 0   0 0.00 0.00 55.8   4.8 44.9   12.0 6.4   9.2 0.000   0.002 0.0   0.0
Linden 5/17/22 0415 44.6   2.2 96   1 43.7   1.9 N | 0 0.0   0.2 0.0   1.4 - 0.00 0.00 47.4   3.2 44.5   1.9 1.9   0.6 - 3.2   0.0
DeVries Road-North 5/17/22 0415 47.1   8.7 92   12 45.1   5.0 NNE | 21 0.4   4.8 1.1   10.7 0   0 0.00 0.00 54.9   2.9 46.6   9.1 6.3   5.5 0.000   0.000 -
Acampo 5/17/22 0415 47.7   9.7 84   15 43.3   4.2 W | 266 0.0   0.1 1.7   9.4 0   0 - 0.00 50.8   8.7 47.6   9.0 1.7   9.4 0.000   0.000 0.4   0.4
Acampo (Woodbridge) 5/17/22 0415 50.3   0.6 89   2 47.3   0.1 SSE | 163 0.1   2.0 1.1   3.2 0   0 0.00 0.00 55.2   3.0 49.6   0.8 6.0   2.6 0.000   0.000 -
Lodi West 5/17/22 0415 49.6   7.6 84   13 44.9   2.8 ENE | 78 0.0   3.4 0.7   9.4 0   0 0.00 0.00 56.8   3.6 49.1   7.1 7.0   3.7 0.000   0.001 1.1   0.2
Teresi-Alpine Rd (East Lodi) 5/17/22 0415 47.5   1.5 88   2 44.1   2.1 N | 0 0.0   1.6 0.0   3.1 0   0 0.00 0.00 50.5   3.3 47.4   1.5 2.9   2.1 0.000   0.000 -
Victor - N (Katusha) 5/17/22 0400 50.0   0.9 83   1 45.0   0.5 N | 0 0.0   0.6 0.0   2.7 - 0.00 0.00 55.5   0.5 49.4   0.5 - - -
Live Oak 5/17/22 0415 45.9   2.8 86   3 42.0   3.6 SSE | 164 0.1   0.3 1.2   1.0 0   0 0.00 0.00 49.3   2.9 45.7   2.5 2.2   1.8 0.000   0.000 -
Sheldon 5/17/22 0415 47.8   4.5 91   11 45.2   0.9 N | 0 0.0   3.7 0.0   6.4 0   0 0.00 0.00 52.1   2.6 47.4   4.4 2.7   5.0 0.000   0.000 0.0   0.0
Sloughhouse 5/17/22 0415 45.6   6.2 91   14 43.1   1.8 N | 0 0.0   3.4 0.0   5.8 1   0 0.00 0.00 49.4   5.2 45.0   5.6 2.7   4.0 0.000   0.000 -
Utter - Wilson 5/17/22 0415 51.3   2.6 88   6 48.1   0.5 SE | 131 2.4   0.2 3.5   5.9 0   0 0.00 0.00 55.4   0.9 51.1   2.6 5.3   8.1 0.000   0.000 -
Clarksburg 5/17/22 0415 51.6   4.1 83   7 46.6   1.5 S | 175 1.8   5.8 3.7   9.0 0   0 0.00 0.00 56.5   1.3 51.2   4.2 6.8   7.2 0.000   0.001 -
Clarksburg-3A2 5/17/22 0415 51.8   3.6 85   7 47.4   1.3 SW | 228 2.0   9.4 3.5   15.0 0   0 0.00 0.00 56.0   1.7 51.6   3.7 8.0   11.2 0.000   0.002 -
Gorter - Wilson 5/17/22 0415 49.4   5.6 90   12 46.8   1.8 SSE | 156 1.7   4.2 2.6   7.7 0   0 0.00 0.00 54.3   2.6 49.0   5.8 3.9   6.9 0.000   0.000 -
Hood 5/17/22 0415 47.1   8.8 96   17 45.9   3.4 E | 88 1.3   4.6 2.2   11.0 0   0 0.00 0.00 52.4   5.4 46.7   8.8 2.5   10.8 0.000   0.000 -
Courtland-C3 5/17/22 0415 51.4   4.4 82   1 46.1   4.5 SSW | 206 2.0   9.7 4.1   16.1 - 0.00 0.00 55.6   2.3 51.0   4.6 6.5   13.7 - -
Pacific Fruit 5/17/22 0415 53.8   2.3 83   1 48.8   2.6 SW | 234 4.9   7.3 9.2   10.6 0   0 0.00 0.00 56.3   2.1 53.5   2.5 9.2   11.7 0.000   0.002 -
Ryer Island South 5/17/22 0400 55.4   1.9 72   8 46.6   4.6 W | 260 4.6   6.8 9.7   9.2 0   0 0.00 0.00 57.4   2.2 55.1   1.9 19.2   0.9 0.002   0.001 0.0   0.0
Farmington (Mobley100) 5/17/22 0400 46.9   2.7 93   1 45.0   2.4 N | 0 0.0   0.0 0.0   0.0 - - - 49.8   2.8 46.6   2.7 0.0   2.0 - -
Collegeville 5/17/22 0415 47.0   7.4 94   7 45.6   5.3 N | 0 0.0   1.7 0.0   4.1 0   0 0.00 0.00 49.7   6.6 46.6   6.9 1.8   5.3 0.000   0.000 -
Oakdale North (28 Mile Rd) 5/17/22 0415 51.1   1.8 83   2 46.2   1.0 NW | 324 0.2   1.1 1.1   3.9 - - - 54.3   2.5 50.8   1.0 3.1   2.4 - -
Escalon 5/17/22 0400 50.2   4.7 87   4 46.4   3.4 NNE | 18 0.5   1.6 2.0   2.9 - 0.00 0.00 55.1   2.3 50.0   4.5 6.4   0.9 - 0.0   0.0
Claussen 5/17/22 0415 52.6   3.3 80   5 46.5   4.8 W | 262 5.8   4.2 11.3   7.4 0   0 0.00 0.00 55.2   2.8 52.4   3.3 13.5   6.3 0.001   0.001 -
Max     55.4 100 48.8 - 5.8 11.3 1 0.00 0.00 57.4 55.1 19.2 0.002 3.2
Avg     49.1 87 45.5 - 0.9 2.1 0 0.00 - - - - - -
Min     44.6 72 42.0 - 0.0 0.0 0 0.00 0.00 47.4 44.5 0.0 0.000 0.0

Latest Observations

Map

Hourly Data